WD1L Weather Reports


Display with metric or nautical units.
time (UTC)temp
F
wind
direction
speed
MPH
gust
MPH
rain 1hr
in
rain 24hr
in
rain mn
in
humidity
%
barometer
mb
20240723163532 71 84 0.0 0.0 0.00 0.00 0.00 89 1015.6
20240723162532 71 85 0.0 0.0 0.00 0.00 0.00 91 1015.6
20240723162032 71 85 0.0 0.0 0.00 0.00 0.00 91 1015.6
20240723160532 70 85 0.0 0.0 0.00 0.00 0.00 91 1015.6
20240723160032 70 85 0.0 0.0 0.00 0.00 0.00 92 1015.6
20240723155532 70 85 0.0 0.0 0.00 0.00 0.00 92 1015.6
20240723155032 70 85 0.0 0.0 0.00 0.00 0.00 92 1015.6
20240723154532 70 85 0.0 0.0 0.00 0.00 0.00 92 1015.6
20240723154031 70 86 0.0 0.0 0.00 0.00 0.00 91 1015.6
20240723153531 70 86 0.0 0.0 0.00 0.00 0.00 91 1015.6
20240723152532 70 78 0.0 0.0 0.00 0.00 0.00 92 1015.4
20240723152032 70 78 0.0 0.0 0.00 0.00 0.00 92 1015.4
20240723151532 70 76 0.0 1.0 0.00 0.00 0.00 92 1015.4
20240723151032 70 76 0.0 1.0 0.00 0.00 0.00 92 1015.4
20240723150532 70 75 0.0 0.0 0.00 0.00 0.00 92 1015.4
20240723145532 70 72 0.0 0.0 0.00 0.00 0.00 92 1015.3
20240723143532 70 72 0.0 0.0 0.00 0.00 0.00 92 1015.2
20240723143032 70 72 0.0 0.0 0.00 0.00 0.00 92 1015.2
20240723142532 70 72 0.0 0.0 0.00 0.00 0.00 92 1015.1
20240723142032 70 72 0.0 0.0 0.00 0.00 0.00 92 1015.1
20240723141532 70 72 0.0 0.0 0.00 0.00 0.00 92 1015.1
20240723141032 69 72 0.0 0.0 0.00 0.00 0.00 92 1015.1
20240723140532 69 72 0.0 0.0 0.00 0.00 0.00 92 1015.1
20240723140032 70 72 0.0 0.0 0.00 0.00 0.00 92 1015.1
20240723135032 70 72 0.0 0.0 0.00 0.00 0.00 92 1015.1
20240723134532 70 72 0.0 0.0 0.00 0.00 0.00 92 1015.1
20240723134032 69 72 0.0 0.0 0.00 0.00 0.00 92 1015.1
20240723133032 70 72 0.0 0.0 0.00 0.00 0.00 92 1015.1
20240723132032 70 72 0.0 0.0 0.00 0.00 0.00 92 1015.1
20240723131032 70 72 0.0 0.0 0.00 0.00 0.00 92 1014.9
20240723130532 70 72 0.0 0.0 0.00 0.00 0.00 92 1014.9
20240723130032 70 72 0.0 0.0 0.00 0.00 0.00 92 1014.9
20240723125532 70 72 0.0 0.0 0.00 0.00 0.00 92 1014.8
20240723125032 70 72 0.0 0.0 0.00 0.00 0.00 92 1014.8
20240723124532 70 72 0.0 0.0 0.00 0.00 0.00 92 1014.8
20240723123532 70 72 0.0 0.0 0.00 0.00 0.00 92 1014.7
20240723122532 70 72 0.0 0.0 0.00 0.00 0.00 92 1015.8
20240723122032 70 72 0.0 1.0 0.00 0.00 0.00 92 1015.8
20240723121532 70 72 0.0 1.0 0.00 0.00 0.00 92 1015.8
20240723121032 70 21 0.0 1.0 0.00 0.00 0.00 92 1014.6
20240723115532 70 21 0.0 0.0 0.00 0.00 0.00 92 1014.6
20240723115032 70 21 0.0 0.0 0.00 0.00 0.00 92 1014.6
20240723114532 70 21 0.0 0.0 0.00 0.00 0.00 92 1014.6
20240723114031 70 21 0.0 0.0 0.00 0.00 0.00 92 1014.6
20240723113032 70 21 0.0 0.0 0.00 0.00 0.00 92 1014.6
20240723112531 70 21 0.0 0.0 0.00 0.00 0.00 92 1014.7
20240723112032 70 21 0.0 0.0 0.00 0.00 0.00 92 1014.7
20240723111532 71 21 0.0 0.0 0.00 0.00 0.00 92 1014.7
20240723110032 71 21 0.0 0.0 0.00 0.00 0.00 92 1014.6
20240723105532 71 21 0.0 0.0 0.00 0.00 0.00 92 1014.5
20240723105032 71 21 0.0 0.0 0.00 0.00 0.00 92 1014.5
20240723104032 71 21 0.0 0.0 0.00 0.00 0.00 92 1014.4
20240723103532 71 21 0.0 0.0 0.00 0.00 0.00 92 1014.4
20240723103031 71 21 0.0 0.0 0.00 0.00 0.00 92 1014.4
20240723102532 71 21 0.0 0.0 0.00 0.00 0.00 92 1014.1
20240723102032 71 21 0.0 0.0 0.00 0.00 0.00 91 1014.1
20240723101532 71 21 0.0 0.0 0.00 0.00 0.00 92 1014.1
20240723101032 71 21 0.0 0.0 0.00 0.00 0.00 91 1014.1
20240723100532 71 21 0.0 0.0 0.00 0.00 0.00 91 1014.1
20240723100032 71 21 0.0 0.0 0.00 0.00 0.00 92 1014.1
20240723095532 71 21 0.0 0.0 0.00 0.00 0.00 92 1014.0
20240723095032 71 21 0.0 0.0 0.00 0.00 0.00 91 1014.0
20240723094032 71 21 0.0 0.0 0.00 0.00 0.00 91 1014.1
20240723093032 71 20 0.0 0.0 0.00 0.00 0.00 91 1014.1
20240723092531 71 20 0.0 0.0 0.00 0.00 0.00 91 1014.1
20240723092032 71 20 0.0 0.0 0.00 0.00 0.00 91 1014.1
20240723091532 71 20 0.0 0.0 0.00 0.00 0.00 91 1014.1
20240723091032 71 20 0.0 0.0 0.00 0.00 0.00 91 1014.2
20240723090032 71 20 0.0 0.0 0.00 0.00 0.00 91 1014.2
20240723085532 71 20 0.0 0.0 0.00 0.00 0.00 91 1014.3
20240723085032 71 20 0.0 0.0 0.00 0.00 0.00 91 1014.3
20240723084532 71 20 0.0 0.0 0.00 0.00 0.00 91 1014.3
20240723084032 72 20 0.0 0.0 0.00 0.00 0.00 90 1014.2
20240723082532 72 20 0.0 0.0 0.00 0.00 0.00 90 1014.4
20240723081532 72 20 0.0 0.0 0.00 0.00 0.00 90 1014.4
20240723080532 72 20 0.0 0.0 0.00 0.00 0.00 90 1014.1
20240723080032 72 20 0.0 0.0 0.00 0.00 0.00 91 1014.1
20240723075532 72 20 0.0 0.0 0.00 0.00 0.00 91 1014.2
20240723075032 72 19 0.0 0.0 0.00 0.00 0.00 91 1014.2
20240723074032 72 20 0.0 0.0 0.00 0.00 0.00 91 1014.4
20240723073532 72 20 0.0 0.0 0.00 0.00 0.00 91 1014.4
20240723073032 73 19 0.0 0.0 0.00 0.00 0.00 91 1014.4
20240723072032 73 20 0.0 0.0 0.00 0.00 0.00 91 1014.5
20240723071532 73 19 0.0 0.0 0.00 0.00 0.00 91 1014.5
20240723070532 73 19 0.0 0.0 0.00 0.00 0.00 91 1014.5
20240723070032 73 19 0.0 0.0 0.00 0.00 0.00 91 1014.5
20240723064532 73 19 0.0 0.0 0.00 0.00 0.00 91 1014.5
20240723064032 73 20 0.0 0.0 0.00 0.00 0.00 91 1014.5
20240723063532 73 19 0.0 0.0 0.00 0.00 0.00 91 1014.5
20240723063032 73 20 0.0 0.0 0.00 0.00 0.00 91 1014.5
20240723062532 73 19 0.0 0.0 0.00 0.00 0.00 91 1014.5
20240723062032 73 19 0.0 0.0 0.00 0.00 0.00 91 1014.5
20240723061532 73 20 0.0 0.0 0.00 0.00 0.00 91 1014.5
20240723061032 73 19 0.0 0.0 0.00 0.00 0.00 91 1014.6
20240723060032 73 20 0.0 0.0 0.00 0.00 0.00 90 1014.6
20240723055032 73 20 0.0 0.0 0.00 0.00 0.00 91 1014.7
20240723054532 74 19 0.0 0.0 0.00 0.00 0.00 90 1014.7
20240723053032 74 20 0.0 0.0 0.00 0.00 0.00 90 1014.8
20240723052532 74 19 0.0 0.0 0.00 0.00 0.00 90 1015.0
20240723052032 74 19 0.0 0.0 0.00 0.00 0.00 90 1015.0
20240723051032 74 19 0.0 0.0 0.00 0.00 0.00 90 1015.1
20240723050532 74 20 0.0 0.0 0.00 0.00 0.00 90 1015.1
20240723050032 74 19 0.0 0.0 0.00 0.00 0.00 90 1015.1
20240723045032 75 19 0.0 0.0 0.00 0.00 0.00 89 1015.4
20240723044532 75 19 0.0 0.0 0.00 0.00 0.00 89 1015.4
20240723043532 75 19 0.0 0.0 0.00 0.00 0.00 89 1015.5
20240723042532 75 19 0.0 0.0 0.00 0.00 0.00 89 1015.6
20240723042032 75 19 0.0 0.0 0.00 0.00 0.00 89 1015.6
20240723041532 75 19 0.0 0.0 0.00 0.00 0.00 89 1015.6
20240723040032 75 19 0.0 0.0 0.00 0.00 0.00 89 1015.8
20240723035532 75 19 0.0 0.0 0.00 0.00 0.00 89 1015.9
20240723034532 75 19 0.0 0.0 0.00 0.00 0.00 89 1015.9
20240723034032 75 19 0.0 0.0 0.00 0.00 0.00 88 1016.0
20240723033532 75 19 0.0 0.0 0.00 0.00 0.00 88 1016.0
20240723033032 75 19 0.0 0.0 0.00 0.00 0.00 88 1016.0
20240723032532 75 19 0.0 0.0 0.00 0.00 0.00 88 1016.1
20240723031532 76 19 0.0 0.0 0.00 0.00 0.00 88 1016.1
20240723031032 75 19 0.0 0.0 0.00 0.00 0.00 88 1016.1
20240723030532 76 19 0.0 0.0 0.00 0.00 0.00 88 1016.1
20240723030132 76 19 0.0 0.0 0.00 0.00 0.00 88 1016.1
20240723025032 76 19 0.0 0.0 0.00 0.00 0.00 87 1016.3
20240723024032 76 19 0.0 0.0 0.00 0.00 0.00 87 1016.1
20240723023532 76 19 0.0 0.0 0.00 0.00 0.00 87 1016.1
20240723023032 76 19 0.0 0.0 0.00 0.00 0.00 87 1016.1
20240723022532 76 19 0.0 0.0 0.00 0.00 0.00 87 1016.1
20240723022032 76 19 0.0 0.0 0.00 0.00 0.00 86 1016.1
20240723021032 76 19 0.0 0.0 0.00 0.00 0.00 86 1016.2
20240723020032 76 19 0.0 1.0 0.00 0.00 0.00 86 1016.2
20240723014532 76 289 0.0 0.0 0.00 0.00 0.00 85 1016.2
20240723013532 76 289 0.0 0.0 0.00 0.00 0.00 85 1016.1
20240723013032 77 289 0.0 0.0 0.00 0.00 0.00 84 1016.1
20240723012532 77 289 0.0 0.0 0.00 0.00 0.00 84 1016.1
20240723012032 77 289 0.0 0.0 0.00 0.00 0.00 84 1016.1
20240723011532 77 289 0.0 0.0 0.00 0.00 0.00 83 1016.1
20240723011032 77 289 0.0 0.0 0.00 0.00 0.00 83 1016.0
20240723010532 77 289 0.0 0.0 0.00 0.00 0.00 83 1016.0
20240723010032 77 289 0.0 0.0 0.00 0.00 0.00 82 1016.0
20240723005032 77 289 0.0 0.0 0.00 0.00 0.00 80 1015.7
20240723003032 77 289 0.0 0.0 0.00 0.00 0.00 78 1015.6
20240723002532 77 289 0.0 0.0 0.00 0.00 0.00 77 1015.5
20240723002032 77 289 0.0 0.0 0.00 0.00 0.00 77 1015.5
20240723001532 77 289 0.0 0.0 0.00 0.00 0.00 76 1015.5
20240723001032 77 289 0.0 0.0 0.00 0.00 0.00 77 1015.5
20240722235032 78 289 0.0 0.0 0.00 0.00 0.00 76 1015.5
20240722234532 78 289 0.0 0.0 0.00 0.00 0.00 76 1015.5
20240722233032 79 289 0.0 0.0 0.00 0.00 0.00 76 1015.5
20240722232532 79 289 0.0 0.0 0.00 0.00 0.00 76 1015.6
20240722232032 79 289 0.0 0.0 0.00 0.00 0.00 76 1015.6
20240722231532 79 289 0.0 0.0 0.00 0.00 0.00 77 1015.6
20240722230532 79 289 0.0 0.0 0.00 0.00 0.00 77 1015.6
20240722230032 80 289 0.0 0.0 0.00 0.00 0.00 77 1015.6
20240722224532 80 287 0.0 0.0 0.00 0.00 0.00 77 1015.6
20240722223532 80 280 0.0 0.0 0.00 0.00 0.00 77 1015.6
20240722223032 80 280 0.0 0.0 0.00 0.00 0.00 78 1015.6
20240722221532 80 187 0.0 0.0 0.00 0.00 0.00 78 1015.6
20240722215532 81 188 0.0 0.0 0.00 0.00 0.00 78 1015.6
20240722215032 81 187 0.0 0.0 0.00 0.00 0.00 77 1015.6
20240722213532 81 1 0.0 0.0 0.00 0.00 0.00 76 1015.6
20240722213032 81 1 0.0 2.0 0.00 0.00 0.00 75 1015.6
20240722212532 81 1 0.0 2.0 0.00 0.00 0.00 75 1015.6
20240722212032 82 1 0.0 0.0 0.00 0.00 0.00 74 1015.6
20240722211532 82 1 0.0 5.0 0.00 0.00 0.00 74 1015.6
20240722205032 83 229 0.0 0.0 0.00 0.00 0.00 72 1015.6
20240722204532 83 229 0.0 0.0 0.00 0.00 0.00 72 1015.6
20240722204032 83 229 0.0 0.0 0.00 0.00 0.00 72 1015.6
20240722203532 84 229 0.0 0.0 0.00 0.00 0.00 71 1015.6
20240722203032 84 229 0.0 0.0 0.00 0.00 0.00 71 1015.6
20240722202032 84 27 0.0 2.0 0.00 0.00 0.00 70 1015.6
20240722201032 85 248 0.0 3.0 0.00 0.00 0.00 67 1015.6
20240722200532 86 253 0.0 1.0 0.00 0.00 0.00 66 1015.6
20240722200032 86 253 0.0 1.0 0.00 0.00 0.00 66 1015.6
20240722195532 86 254 0.0 2.0 0.00 0.00 0.00 65 1015.6
20240722195032 86 254 0.0 2.0 0.00 0.00 0.00 65 1015.6
20240722194532 86 245 0.0 1.0 0.00 0.00 0.00 65 1015.6
20240722194032 86 244 0.0 1.0 0.00 0.00 0.00 64 1015.6
20240722193532 86 238 0.0 1.0 0.00 0.00 0.00 64 1015.6
20240722193032 86 238 0.0 1.0 0.00 0.00 0.00 63 1015.6
20240722192532 86 240 0.0 0.0 0.00 0.00 0.00 65 1015.6
20240722192032 86 239 0.0 2.0 0.00 0.00 0.00 63 1015.6
20240722191532 85 239 0.0 2.0 0.00 0.00 0.00 62 1015.6
20240722191032 86 239 0.0 2.0 0.00 0.00 0.00 63 1015.8
20240722190532 86 240 0.0 2.0 0.00 0.00 0.00 63 1015.8
20240722190032 86 241 0.0 0.0 0.00 0.00 0.00 63 1015.8
20240722185532 86 240 0.0 0.0 0.00 0.00 0.00 62 1015.9
20240722185032 86 240 0.0 0.0 0.00 0.00 0.00 63 1015.9
20240722184532 86 241 0.0 0.0 0.00 0.00 0.00 62 1015.9
20240722183532 87 304 0.0 1.0 0.00 0.00 0.00 62 1015.9
20240722183032 87 306 0.0 2.0 0.00 0.00 0.00 64 1015.9
20240722182032 88 263 0.0 0.0 0.00 0.00 0.00 61 1016.0
20240722181532 88 263 0.0 4.0 0.00 0.00 0.00 59 1016.0
20240722181032 88 264 0.0 4.0 0.00 0.00 0.00 59 1016.0
20240722180532 88 203 0.0 2.0 0.00 0.00 0.00 62 1016.0
20240722180032 88 202 0.0 2.0 0.00 0.00 0.00 63 1016.0
20240722175532 88 202 0.0 2.0 0.00 0.00 0.00 63 1016.1
20240722175032 88 52 0.0 2.0 0.00 0.00 0.00 63 1016.1
20240722174532 87 52 0.0 2.0 0.00 0.00 0.00 62 1016.1
20240722173032 87 277 0.0 0.0 0.00 0.00 0.00 61 1016.1
20240722172532 87 276 0.0 0.0 0.00 0.00 0.00 61 1016.1
20240722172032 88 276 0.0 2.0 0.00 0.00 0.00 59 1016.1
20240722171532 88 277 0.0 2.0 0.00 0.00 0.00 59 1016.1
20240722171032 88 337 0.0 0.0 0.00 0.00 0.00 59 1016.1
20240722170532 88 337 0.0 1.0 0.00 0.00 0.00 58 1016.1
20240722170032 88 337 0.0 2.0 0.00 0.00 0.00 59 1016.1
20240722165532 88 22 0.0 2.0 0.00 0.00 0.00 59 1016.3
20240722165032 88 282 0.0 0.0 0.00 0.00 0.00 63 1016.3